sensor_id;sensor_type;location;lat;lon;timestamp;temperature;humidity
8008;DHT22;4049;49.468;11.200;2022-08-30T00:00:26;15.10;99.90
8008;DHT22;4049;49.468;11.200;2022-08-30T00:03:12;15.10;99.90
8008;DHT22;4049;49.468;11.200;2022-08-30T00:05:40;15.00;99.90
8008;DHT22;4049;49.468;11.200;2022-08-30T00:08:07;15.00;99.90
8008;DHT22;4049;49.468;11.200;2022-08-30T00:10:35;15.00;99.90
8008;DHT22;4049;49.468;11.200;2022-08-30T00:16:24;14.90;99.90
8008;DHT22;4049;49.468;11.200;2022-08-30T00:18:53;14.90;99.90
8008;DHT22;4049;49.468;11.200;2022-08-30T00:21:21;14.80;99.90
8008;DHT22;4049;49.468;11.200;2022-08-30T00:23:48;14.80;99.90
8008;DHT22;4049;49.468;11.200;2022-08-30T00:26:15;14.80;99.90
8008;DHT22;4049;49.468;11.200;2022-08-30T00:28:42;14.80;99.90
8008;DHT22;4049;49.468;11.200;2022-08-30T00:31:09;14.70;99.90
8008;DHT22;4049;49.468;11.200;2022-08-30T00:33:37;14.70;99.90
8008;DHT22;4049;49.468;11.200;2022-08-30T00:36:06;14.70;99.90
8008;DHT22;4049;49.468;11.200;2022-08-30T00:38:33;14.60;99.90
8008;DHT22;4049;49.468;11.200;2022-08-30T00:41:00;14.50;99.90
8008;DHT22;4049;49.468;11.200;2022-08-30T00:43:29;14.50;99.90
8008;DHT22;4049;49.468;11.200;2022-08-30T00:45:58;14.40;99.90
8008;DHT22;4049;49.468;11.200;2022-08-30T00:48:29;14.40;99.90
8008;DHT22;4049;49.468;11.200;2022-08-30T00:50:58;14.40;99.90
8008;DHT22;4049;49.468;11.200;2022-08-30T00:53:31;14.40;99.90
8008;DHT22;4049;49.468;11.200;2022-08-30T00:55:59;14.40;99.90
8008;DHT22;4049;49.468;11.200;2022-08-30T00:58:30;14.40;99.90
8008;DHT22;4049;49.468;11.200;2022-08-30T01:00:58;14.40;99.90
8008;DHT22;4049;49.468;11.200;2022-08-30T01:03:27;14.40;99.90
8008;DHT22;4049;49.468;11.200;2022-08-30T01:05:56;14.40;99.90
8008;DHT22;4049;49.468;11.200;2022-08-30T01:08:23;14.30;99.90
8008;DHT22;4049;49.468;11.200;2022-08-30T01:10:53;14.30;99.90
8008;DHT22;4049;49.468;11.200;2022-08-30T01:13:21;14.30;99.90
8008;DHT22;4049;49.468;11.200;2022-08-30T01:15:49;14.20;99.90
8008;DHT22;4049;49.468;11.200;2022-08-30T01:18:17;14.20;99.90
8008;DHT22;4049;49.468;11.200;2022-08-30T01:20:47;14.20;99.90
8008;DHT22;4049;49.468;11.200;2022-08-30T01:23:18;14.10;99.90
8008;DHT22;4049;49.468;11.200;2022-08-30T01:25:47;14.10;99.90
8008;DHT22;4049;49.468;11.200;2022-08-30T01:28:17;14.10;99.90
8008;DHT22;4049;49.468;11.200;2022-08-30T01:30:46;14.10;99.90
8008;DHT22;4049;49.468;11.200;2022-08-30T01:33:13;14.00;99.90
8008;DHT22;4049;49.468;11.200;2022-08-30T01:35:45;14.10;99.90
8008;DHT22;4049;49.468;11.200;2022-08-30T01:38:16;14.10;99.90
8008;DHT22;4049;49.468;11.200;2022-08-30T01:40:44;14.10;99.90
8008;DHT22;4049;49.468;11.200;2022-08-30T01:43:11;14.00;99.90
8008;DHT22;4049;49.468;11.200;2022-08-30T01:45:39;13.90;99.90
8008;DHT22;4049;49.468;11.200;2022-08-30T01:48:06;14.00;99.90
8008;DHT22;4049;49.468;11.200;2022-08-30T01:50:33;14.00;99.90
8008;DHT22;4049;49.468;11.200;2022-08-30T01:53:00;14.00;99.90
8008;DHT22;4049;49.468;11.200;2022-08-30T01:55:28;14.00;99.90
8008;DHT22;4049;49.468;11.200;2022-08-30T01:57:55;14.00;99.90
8008;DHT22;4049;49.468;11.200;2022-08-30T02:00:23;14.00;99.90
8008;DHT22;4049;49.468;11.200;2022-08-30T02:02:50;14.00;99.90
8008;DHT22;4049;49.468;11.200;2022-08-30T02:05:17;14.00;99.90
8008;DHT22;4049;49.468;11.200;2022-08-30T02:07:44;14.00;99.90
8008;DHT22;4049;49.468;11.200;2022-08-30T02:10:11;14.00;99.90
8008;DHT22;4049;49.468;11.200;2022-08-30T02:12:40;14.00;99.90
8008;DHT22;4049;49.468;11.200;2022-08-30T02:15:08;13.90;99.90
8008;DHT22;4049;49.468;11.200;2022-08-30T02:17:35;13.90;99.90
8008;DHT22;4049;49.468;11.200;2022-08-30T02:20:03;13.90;99.90
8008;DHT22;4049;49.468;11.200;2022-08-30T02:22:30;13.90;99.90
8008;DHT22;4049;49.468;11.200;2022-08-30T02:24:57;13.90;99.90
8008;DHT22;4049;49.468;11.200;2022-08-30T02:27:26;13.90;99.90
8008;DHT22;4049;49.468;11.200;2022-08-30T02:29:54;13.90;99.90
8008;DHT22;4049;49.468;11.200;2022-08-30T02:32:21;14.00;99.90
8008;DHT22;4049;49.468;11.200;2022-08-30T02:34:48;14.00;99.90
8008;DHT22;4049;49.468;11.200;2022-08-30T02:37:15;13.90;99.90
8008;DHT22;4049;49.468;11.200;2022-08-30T02:39:42;13.90;99.90
8008;DHT22;4049;49.468;11.200;2022-08-30T02:42:09;13.80;99.90
8008;DHT22;4049;49.468;11.200;2022-08-30T02:44:36;13.80;99.90
8008;DHT22;4049;49.468;11.200;2022-08-30T02:47:04;13.80;99.90
8008;DHT22;4049;49.468;11.200;2022-08-30T02:49:31;13.80;99.90
8008;DHT22;4049;49.468;11.200;2022-08-30T02:51:58;13.70;99.90
8008;DHT22;4049;49.468;11.200;2022-08-30T02:54:25;13.70;99.90
8008;DHT22;4049;49.468;11.200;2022-08-30T02:56:53;13.70;99.90
8008;DHT22;4049;49.468;11.200;2022-08-30T02:59:20;13.70;99.90
8008;DHT22;4049;49.468;11.200;2022-08-30T03:01:47;13.70;99.90
8008;DHT22;4049;49.468;11.200;2022-08-30T03:04:16;13.70;99.90
8008;DHT22;4049;49.468;11.200;2022-08-30T03:06:42;13.60;99.90
8008;DHT22;4049;49.468;11.200;2022-08-30T03:09:09;13.60;99.90
8008;DHT22;4049;49.468;11.200;2022-08-30T03:11:36;13.60;99.90
8008;DHT22;4049;49.468;11.200;2022-08-30T03:14:03;13.50;99.90
8008;DHT22;4049;49.468;11.200;2022-08-30T03:16:30;13.50;99.90
8008;DHT22;4049;49.468;11.200;2022-08-30T03:18:57;13.50;99.90
8008;DHT22;4049;49.468;11.200;2022-08-30T03:21:26;13.50;99.90
8008;DHT22;4049;49.468;11.200;2022-08-30T03:23:52;13.50;99.90
8008;DHT22;4049;49.468;11.200;2022-08-30T03:26:19;13.50;99.90
8008;DHT22;4049;49.468;11.200;2022-08-30T03:28:46;13.40;99.90
8008;DHT22;4049;49.468;11.200;2022-08-30T03:31:13;13.40;99.90
8008;DHT22;4049;49.468;11.200;2022-08-30T03:33:40;13.40;99.90
8008;DHT22;4049;49.468;11.200;2022-08-30T03:36:08;13.30;99.90
8008;DHT22;4049;49.468;11.200;2022-08-30T03:38:37;13.30;99.90
8008;DHT22;4049;49.468;11.200;2022-08-30T03:41:04;13.30;99.90
8008;DHT22;4049;49.468;11.200;2022-08-30T03:43:32;13.30;99.90
8008;DHT22;4049;49.468;11.200;2022-08-30T03:45:59;13.20;99.90
8008;DHT22;4049;49.468;11.200;2022-08-30T03:48:26;13.20;99.90
8008;DHT22;4049;49.468;11.200;2022-08-30T03:50:53;13.20;99.90
8008;DHT22;4049;49.468;11.200;2022-08-30T03:53:20;13.20;99.90
8008;DHT22;4049;49.468;11.200;2022-08-30T03:55:49;13.20;99.90
8008;DHT22;4049;49.468;11.200;2022-08-30T03:58:16;13.10;99.90
8008;DHT22;4049;49.468;11.200;2022-08-30T04:00:43;13.10;99.90
8008;DHT22;4049;49.468;11.200;2022-08-30T04:03:09;13.10;99.90
8008;DHT22;4049;49.468;11.200;2022-08-30T04:05:36;13.00;99.90
8008;DHT22;4049;49.468;11.200;2022-08-30T04:08:03;13.00;99.90
8008;DHT22;4049;49.468;11.200;2022-08-30T04:10:31;13.00;99.90
8008;DHT22;4049;49.468;11.200;2022-08-30T04:13:00;13.00;99.90
8008;DHT22;4049;49.468;11.200;2022-08-30T04:15:27;13.00;99.90
8008;DHT22;4049;49.468;11.200;2022-08-30T04:17:54;12.90;99.90
8008;DHT22;4049;49.468;11.200;2022-08-30T04:20:21;12.90;99.90
8008;DHT22;4049;49.468;11.200;2022-08-30T04:22:48;12.90;99.90
8008;DHT22;4049;49.468;11.200;2022-08-30T04:25:15;12.90;99.90
8008;DHT22;4049;49.468;11.200;2022-08-30T04:27:42;12.90;99.90
8008;DHT22;4049;49.468;11.200;2022-08-30T04:30:12;12.90;99.90
8008;DHT22;4049;49.468;11.200;2022-08-30T04:32:39;12.90;99.90
8008;DHT22;4049;49.468;11.200;2022-08-30T04:35:06;12.80;99.90
8008;DHT22;4049;49.468;11.200;2022-08-30T04:37:34;12.80;99.90
8008;DHT22;4049;49.468;11.200;2022-08-30T04:40:01;12.80;99.90
8008;DHT22;4049;49.468;11.200;2022-08-30T04:42:31;12.80;99.90
8008;DHT22;4049;49.468;11.200;2022-08-30T04:45:00;12.70;99.90
8008;DHT22;4049;49.468;11.200;2022-08-30T04:47:29;12.70;99.90
8008;DHT22;4049;49.468;11.200;2022-08-30T04:49:56;12.70;99.90
8008;DHT22;4049;49.468;11.200;2022-08-30T04:52:23;12.70;99.90
8008;DHT22;4049;49.468;11.200;2022-08-30T04:54:53;12.70;99.90
8008;DHT22;4049;49.468;11.200;2022-08-30T04:57:20;12.70;99.90
8008;DHT22;4049;49.468;11.200;2022-08-30T04:59:47;12.70;99.90
8008;DHT22;4049;49.468;11.200;2022-08-30T05:02:14;12.70;99.90
8008;DHT22;4049;49.468;11.200;2022-08-30T05:04:42;12.70;99.90
8008;DHT22;4049;49.468;11.200;2022-08-30T05:07:23;12.70;99.90
8008;DHT22;4049;49.468;11.200;2022-08-30T05:09:50;12.70;99.90
8008;DHT22;4049;49.468;11.200;2022-08-30T05:12:17;12.70;99.90
8008;DHT22;4049;49.468;11.200;2022-08-30T05:14:44;12.70;99.90
8008;DHT22;4049;49.468;11.200;2022-08-30T05:17:11;12.70;99.90
8008;DHT22;4049;49.468;11.200;2022-08-30T05:19:37;12.70;99.90
8008;DHT22;4049;49.468;11.200;2022-08-30T05:22:06;12.80;99.90
8008;DHT22;4049;49.468;11.200;2022-08-30T05:24:33;12.80;99.90
8008;DHT22;4049;49.468;11.200;2022-08-30T05:27:00;12.80;99.90
8008;DHT22;4049;49.468;11.200;2022-08-30T05:29:27;12.80;99.90
8008;DHT22;4049;49.468;11.200;2022-08-30T05:31:55;12.90;99.90
8008;DHT22;4049;49.468;11.200;2022-08-30T05:34:22;12.90;99.90
8008;DHT22;4049;49.468;11.200;2022-08-30T05:36:49;12.90;99.90
8008;DHT22;4049;49.468;11.200;2022-08-30T05:39:19;13.00;99.90
8008;DHT22;4049;49.468;11.200;2022-08-30T05:41:46;13.10;99.90
8008;DHT22;4049;49.468;11.200;2022-08-30T05:44:13;13.10;99.90
8008;DHT22;4049;49.468;11.200;2022-08-30T05:46:39;13.10;99.90
8008;DHT22;4049;49.468;11.200;2022-08-30T05:49:10;13.10;99.90
8008;DHT22;4049;49.468;11.200;2022-08-30T05:51:37;13.20;99.90
8008;DHT22;4049;49.468;11.200;2022-08-30T05:54:04;13.30;99.90
8008;DHT22;4049;49.468;11.200;2022-08-30T05:56:35;13.30;99.90
8008;DHT22;4049;49.468;11.200;2022-08-30T05:59:04;13.40;99.90
8008;DHT22;4049;49.468;11.200;2022-08-30T06:01:34;13.50;99.90
8008;DHT22;4049;49.468;11.200;2022-08-30T06:04:03;13.50;99.90
8008;DHT22;4049;49.468;11.200;2022-08-30T06:06:32;13.60;99.90
8008;DHT22;4049;49.468;11.200;2022-08-30T06:08:59;13.60;99.90
8008;DHT22;4049;49.468;11.200;2022-08-30T06:11:26;13.70;99.90
8008;DHT22;4049;49.468;11.200;2022-08-30T06:13:55;13.80;99.90
8008;DHT22;4049;49.468;11.200;2022-08-30T06:16:25;13.80;99.90
8008;DHT22;4049;49.468;11.200;2022-08-30T06:18:52;13.90;99.90
8008;DHT22;4049;49.468;11.200;2022-08-30T06:21:22;14.00;99.90
8008;DHT22;4049;49.468;11.200;2022-08-30T06:23:50;14.10;99.90
8008;DHT22;4049;49.468;11.200;2022-08-30T06:26:18;14.20;99.90
8008;DHT22;4049;49.468;11.200;2022-08-30T06:28:45;14.30;99.90
8008;DHT22;4049;49.468;11.200;2022-08-30T06:31:16;14.40;99.90
8008;DHT22;4049;49.468;11.200;2022-08-30T06:33:47;14.50;99.90
8008;DHT22;4049;49.468;11.200;2022-08-30T06:36:16;14.60;99.90
8008;DHT22;4049;49.468;11.200;2022-08-30T06:38:45;14.80;99.90
8008;DHT22;4049;49.468;11.200;2022-08-30T06:41:13;14.80;99.90
8008;DHT22;4049;49.468;11.200;2022-08-30T06:43:41;15.00;99.90
8008;DHT22;4049;49.468;11.200;2022-08-30T06:46:14;15.10;99.90
8008;DHT22;4049;49.468;11.200;2022-08-30T06:48:41;15.20;99.90
8008;DHT22;4049;49.468;11.200;2022-08-30T06:51:08;15.30;99.90
8008;DHT22;4049;49.468;11.200;2022-08-30T06:53:35;15.40;99.90
8008;DHT22;4049;49.468;11.200;2022-08-30T06:56:05;15.50;99.90
8008;DHT22;4049;49.468;11.200;2022-08-30T06:58:34;15.60;99.90
8008;DHT22;4049;49.468;11.200;2022-08-30T07:01:01;15.70;99.90
8008;DHT22;4049;49.468;11.200;2022-08-30T07:03:30;15.80;99.90
8008;DHT22;4049;49.468;11.200;2022-08-30T07:05:57;15.90;99.90
8008;DHT22;4049;49.468;11.200;2022-08-30T07:08:24;16.00;99.90
8008;DHT22;4049;49.468;11.200;2022-08-30T07:10:52;16.10;99.90
8008;DHT22;4049;49.468;11.200;2022-08-30T07:13:19;16.20;99.90
8008;DHT22;4049;49.468;11.200;2022-08-30T07:15:46;16.30;99.90
8008;DHT22;4049;49.468;11.200;2022-08-30T07:18:14;16.40;99.90
8008;DHT22;4049;49.468;11.200;2022-08-30T07:21:06;16.50;99.90
8008;DHT22;4049;49.468;11.200;2022-08-30T07:23:35;16.60;99.90
8008;DHT22;4049;49.468;11.200;2022-08-30T07:26:04;16.70;99.90
8008;DHT22;4049;49.468;11.200;2022-08-30T07:28:31;16.80;99.90
8008;DHT22;4049;49.468;11.200;2022-08-30T07:30:58;16.90;99.90
8008;DHT22;4049;49.468;11.200;2022-08-30T07:33:26;17.00;99.90
8008;DHT22;4049;49.468;11.200;2022-08-30T07:35:53;17.10;99.90
8008;DHT22;4049;49.468;11.200;2022-08-30T07:38:22;17.20;99.90
8008;DHT22;4049;49.468;11.200;2022-08-30T07:40:49;17.30;99.90
8008;DHT22;4049;49.468;11.200;2022-08-30T07:43:15;17.40;99.90
8008;DHT22;4049;49.468;11.200;2022-08-30T07:45:43;17.50;99.90
8008;DHT22;4049;49.468;11.200;2022-08-30T07:48:10;17.60;99.90
8008;DHT22;4049;49.468;11.200;2022-08-30T07:50:41;17.70;99.90
8008;DHT22;4049;49.468;11.200;2022-08-30T07:53:09;17.80;99.90
8008;DHT22;4049;49.468;11.200;2022-08-30T07:55:37;18.00;99.90
8008;DHT22;4049;49.468;11.200;2022-08-30T07:58:04;18.10;99.90
8008;DHT22;4049;49.468;11.200;2022-08-30T08:00:31;18.20;99.90
8008;DHT22;4049;49.468;11.200;2022-08-30T08:03:04;18.30;99.90
8008;DHT22;4049;49.468;11.200;2022-08-30T08:05:36;18.40;99.90
8008;DHT22;4049;49.468;11.200;2022-08-30T08:08:03;18.50;99.90
8008;DHT22;4049;49.468;11.200;2022-08-30T08:10:30;18.60;99.90
8008;DHT22;4049;49.468;11.200;2022-08-30T08:12:59;18.70;99.90
8008;DHT22;4049;49.468;11.200;2022-08-30T08:15:26;18.80;99.90
8008;DHT22;4049;49.468;11.200;2022-08-30T08:17:53;18.90;99.90
8008;DHT22;4049;49.468;11.200;2022-08-30T08:20:20;19.10;99.90
8008;DHT22;4049;49.468;11.200;2022-08-30T08:22:48;19.10;99.90
8008;DHT22;4049;49.468;11.200;2022-08-30T08:25:15;19.20;99.90
8008;DHT22;4049;49.468;11.200;2022-08-30T08:27:42;19.30;99.90
8008;DHT22;4049;49.468;11.200;2022-08-30T08:30:11;19.40;99.90
8008;DHT22;4049;49.468;11.200;2022-08-30T08:32:38;19.50;99.90
8008;DHT22;4049;49.468;11.200;2022-08-30T08:35:06;19.60;99.90
8008;DHT22;4049;49.468;11.200;2022-08-30T08:37:33;19.70;99.90
8008;DHT22;4049;49.468;11.200;2022-08-30T08:40:00;19.80;99.90
8008;DHT22;4049;49.468;11.200;2022-08-30T08:42:35;19.90;99.90
8008;DHT22;4049;49.468;11.200;2022-08-30T08:45:12;20.00;99.90
8008;DHT22;4049;49.468;11.200;2022-08-30T08:47:51;20.20;99.90
8008;DHT22;4049;49.468;11.200;2022-08-30T08:50:20;20.30;99.90
8008;DHT22;4049;49.468;11.200;2022-08-30T08:52:50;20.40;99.90
8008;DHT22;4049;49.468;11.200;2022-08-30T08:55:38;20.50;99.90
8008;DHT22;4049;49.468;11.200;2022-08-30T08:58:05;20.60;99.90
8008;DHT22;4049;49.468;11.200;2022-08-30T09:00:34;20.60;99.90
8008;DHT22;4049;49.468;11.200;2022-08-30T09:03:03;20.70;99.90
8008;DHT22;4049;49.468;11.200;2022-08-30T09:05:34;20.80;99.90
8008;DHT22;4049;49.468;11.200;2022-08-30T09:08:05;21.00;99.90
8008;DHT22;4049;49.468;11.200;2022-08-30T09:10:33;21.00;99.90
8008;DHT22;4049;49.468;11.200;2022-08-30T09:13:01;21.10;99.90
8008;DHT22;4049;49.468;11.200;2022-08-30T09:15:30;21.20;99.90
8008;DHT22;4049;49.468;11.200;2022-08-30T09:18:00;21.20;99.90
8008;DHT22;4049;49.468;11.200;2022-08-30T09:20:31;21.30;99.90
8008;DHT22;4049;49.468;11.200;2022-08-30T09:23:09;21.40;99.90
8008;DHT22;4049;49.468;11.200;2022-08-30T09:25:37;21.50;99.90
8008;DHT22;4049;49.468;11.200;2022-08-30T09:28:10;21.60;99.90
8008;DHT22;4049;49.468;11.200;2022-08-30T09:30:38;21.60;99.90
8008;DHT22;4049;49.468;11.200;2022-08-30T09:33:18;21.80;99.90
8008;DHT22;4049;49.468;11.200;2022-08-30T09:35:47;21.90;99.90
8008;DHT22;4049;49.468;11.200;2022-08-30T09:38:17;22.00;99.90
8008;DHT22;4049;49.468;11.200;2022-08-30T09:40:48;22.10;99.90
8008;DHT22;4049;49.468;11.200;2022-08-30T09:43:20;22.20;99.90
8008;DHT22;4049;49.468;11.200;2022-08-30T09:46:05;22.30;99.90
8008;DHT22;4049;49.468;11.200;2022-08-30T09:48:36;22.50;99.90
8008;DHT22;4049;49.468;11.200;2022-08-30T09:51:29;22.60;99.90
8008;DHT22;4049;49.468;11.200;2022-08-30T09:54:05;22.70;99.90
8008;DHT22;4049;49.468;11.200;2022-08-30T09:56:41;22.90;99.90
8008;DHT22;4049;49.468;11.200;2022-08-30T09:59:19;23.00;99.90
8008;DHT22;4049;49.468;11.200;2022-08-30T10:01:53;23.10;99.90
8008;DHT22;4049;49.468;11.200;2022-08-30T10:04:34;23.30;99.90
8008;DHT22;4049;49.468;11.200;2022-08-30T10:07:07;23.40;99.90
8008;DHT22;4049;49.468;11.200;2022-08-30T10:09:42;23.50;98.80
8008;DHT22;4049;49.468;11.200;2022-08-30T10:12:17;23.60;99.90
8008;DHT22;4049;49.468;11.200;2022-08-30T10:14:50;23.80;99.90
8008;DHT22;4049;49.468;11.200;2022-08-30T10:17:37;23.90;99.90
8008;DHT22;4049;49.468;11.200;2022-08-30T10:20:18;24.10;99.90
8008;DHT22;4049;49.468;11.200;2022-08-30T10:22:50;24.30;99.90
8008;DHT22;4049;49.468;11.200;2022-08-30T10:25:23;24.40;97.90
8008;DHT22;4049;49.468;11.200;2022-08-30T10:27:56;24.60;97.30
8008;DHT22;4049;49.468;11.200;2022-08-30T10:30:27;24.70;92.00
8008;DHT22;4049;49.468;11.200;2022-08-30T10:33:00;24.80;92.90
8008;DHT22;4049;49.468;11.200;2022-08-30T10:35:33;25.00;93.70
8008;DHT22;4049;49.468;11.200;2022-08-30T10:38:05;25.10;93.20
8008;DHT22;4049;49.468;11.200;2022-08-30T10:40:35;25.30;92.00
8008;DHT22;4049;49.468;11.200;2022-08-30T10:43:26;25.40;92.80
8008;DHT22;4049;49.468;11.200;2022-08-30T10:46:06;25.60;90.00
8008;DHT22;4049;49.468;11.200;2022-08-30T10:48:37;25.80;89.00
8008;DHT22;4049;49.468;11.200;2022-08-30T10:51:14;25.90;87.40
8008;DHT22;4049;49.468;11.200;2022-08-30T10:53:44;26.10;88.00
8008;DHT22;4049;49.468;11.200;2022-08-30T10:56:15;26.20;85.00
8008;DHT22;4049;49.468;11.200;2022-08-30T10:58:44;26.40;84.40
8008;DHT22;4049;49.468;11.200;2022-08-30T11:01:24;26.40;73.80
8008;DHT22;4049;49.468;11.200;2022-08-30T11:04:12;26.50;57.90
8008;DHT22;4049;49.468;11.200;2022-08-30T11:06:52;26.50;56.00
8008;DHT22;4049;49.468;11.200;2022-08-30T11:09:31;26.60;57.60
8008;DHT22;4049;49.468;11.200;2022-08-30T11:12:26;26.70;58.10
8008;DHT22;4049;49.468;11.200;2022-08-30T11:14:56;27.10;57.30
8008;DHT22;4049;49.468;11.200;2022-08-30T11:17:29;27.40;58.90
8008;DHT22;4049;49.468;11.200;2022-08-30T11:19:58;27.70;59.50
8008;DHT22;4049;49.468;11.200;2022-08-30T11:22:29;28.00;59.30
8008;DHT22;4049;49.468;11.200;2022-08-30T11:25:00;28.30;60.10
8008;DHT22;4049;49.468;11.200;2022-08-30T11:27:47;28.40;57.50
8008;DHT22;4049;49.468;11.200;2022-08-30T11:30:49;28.70;52.80
8008;DHT22;4049;49.468;11.200;2022-08-30T11:33:44;28.90;52.30
8008;DHT22;4049;49.468;11.200;2022-08-30T11:36:58;29.20;49.00
8008;DHT22;4049;49.468;11.200;2022-08-30T11:39:06;29.40;48.50
8008;DHT22;4049;49.468;11.200;2022-08-30T11:41:37;29.70;48.10
8008;DHT22;4049;49.468;11.200;2022-08-30T11:44:12;29.90;47.40
8008;DHT22;4049;49.468;11.200;2022-08-30T11:46:40;29.90;46.30
8008;DHT22;4049;49.468;11.200;2022-08-30T11:49:40;30.10;46.00
8008;DHT22;4049;49.468;11.200;2022-08-30T11:52:30;30.30;43.30
8008;DHT22;4049;49.468;11.200;2022-08-30T11:55:21;30.20;43.70
8008;DHT22;4049;49.468;11.200;2022-08-30T11:57:56;30.40;42.40
8008;DHT22;4049;49.468;11.200;2022-08-30T12:00:28;30.50;45.60
8008;DHT22;4049;49.468;11.200;2022-08-30T12:02:57;30.40;43.00
8008;DHT22;4049;49.468;11.200;2022-08-30T12:05:51;30.50;43.20
8008;DHT22;4049;49.468;11.200;2022-08-30T12:08:48;30.30;43.00
8008;DHT22;4049;49.468;11.200;2022-08-30T12:14:47;30.10;42.80
8008;DHT22;4049;49.468;11.200;2022-08-30T12:17:29;30.40;41.00
8008;DHT22;4049;49.468;11.200;2022-08-30T12:20:25;30.50;41.80
8008;DHT22;4049;49.468;11.200;2022-08-30T12:22:54;30.60;42.70
8008;DHT22;4049;49.468;11.200;2022-08-30T12:25:26;30.60;42.50
8008;DHT22;4049;49.468;11.200;2022-08-30T12:28:12;30.70;42.40
8008;DHT22;4049;49.468;11.200;2022-08-30T12:30:41;30.70;40.30
8008;DHT22;4049;49.468;11.200;2022-08-30T12:33:10;30.60;41.80
8008;DHT22;4049;49.468;11.200;2022-08-30T12:35:40;30.50;40.70
8008;DHT22;4049;49.468;11.200;2022-08-30T12:38:13;30.20;41.90
8008;DHT22;4049;49.468;11.200;2022-08-30T12:40:49;30.00;42.90
8008;DHT22;4049;49.468;11.200;2022-08-30T12:43:23;29.90;43.50
8008;DHT22;4049;49.468;11.200;2022-08-30T12:45:53;29.80;43.70
8008;DHT22;4049;49.468;11.200;2022-08-30T12:48:22;29.60;41.60
8008;DHT22;4049;49.468;11.200;2022-08-30T12:50:52;29.50;42.10
8008;DHT22;4049;49.468;11.200;2022-08-30T12:53:26;29.50;45.10
8008;DHT22;4049;49.468;11.200;2022-08-30T12:55:56;29.50;40.60
8008;DHT22;4049;49.468;11.200;2022-08-30T12:58:39;29.20;42.50
8008;DHT22;4049;49.468;11.200;2022-08-30T13:01:25;29.20;43.80
8008;DHT22;4049;49.468;11.200;2022-08-30T13:03:55;29.10;43.30
8008;DHT22;4049;49.468;11.200;2022-08-30T13:06:47;29.00;44.10
8008;DHT22;4049;49.468;11.200;2022-08-30T13:09:23;29.00;42.80
8008;DHT22;4049;49.468;11.200;2022-08-30T13:11:52;29.20;44.80
8008;DHT22;4049;49.468;11.200;2022-08-30T13:14:32;29.20;44.40
8008;DHT22;4049;49.468;11.200;2022-08-30T13:17:18;29.10;44.70
8008;DHT22;4049;49.468;11.200;2022-08-30T13:19:55;29.00;44.80
8008;DHT22;4049;49.468;11.200;2022-08-30T13:22:25;29.00;44.60
8008;DHT22;4049;49.468;11.200;2022-08-30T13:24:52;28.90;44.80
8008;DHT22;4049;49.468;11.200;2022-08-30T13:27:19;28.90;43.80
8008;DHT22;4049;49.468;11.200;2022-08-30T13:29:46;28.80;42.80
8008;DHT22;4049;49.468;11.200;2022-08-30T13:32:15;28.80;43.80
8008;DHT22;4049;49.468;11.200;2022-08-30T13:34:43;28.70;45.30
8008;DHT22;4049;49.468;11.200;2022-08-30T13:37:13;28.60;44.30
8008;DHT22;4049;49.468;11.200;2022-08-30T13:39:40;28.50;44.40
8008;DHT22;4049;49.468;11.200;2022-08-30T13:42:08;28.40;43.30
8008;DHT22;4049;49.468;11.200;2022-08-30T13:44:35;28.40;44.70
8008;DHT22;4049;49.468;11.200;2022-08-30T13:47:02;28.50;43.50
8008;DHT22;4049;49.468;11.200;2022-08-30T13:49:32;28.50;43.80
8008;DHT22;4049;49.468;11.200;2022-08-30T13:52:01;28.40;43.90
8008;DHT22;4049;49.468;11.200;2022-08-30T13:54:28;28.50;44.30
8008;DHT22;4049;49.468;11.200;2022-08-30T13:56:55;28.60;41.60
8008;DHT22;4049;49.468;11.200;2022-08-30T13:59:23;28.60;41.70
8008;DHT22;4049;49.468;11.200;2022-08-30T14:01:53;28.50;43.40
8008;DHT22;4049;49.468;11.200;2022-08-30T14:04:20;28.40;44.00
8008;DHT22;4049;49.468;11.200;2022-08-30T14:06:48;28.60;43.40
8008;DHT22;4049;49.468;11.200;2022-08-30T14:09:15;28.90;43.20
8008;DHT22;4049;49.468;11.200;2022-08-30T14:11:42;29.20;41.60
8008;DHT22;4049;49.468;11.200;2022-08-30T14:14:10;29.40;41.70
8008;DHT22;4049;49.468;11.200;2022-08-30T14:16:39;29.50;42.20
8008;DHT22;4049;49.468;11.200;2022-08-30T14:19:06;29.80;41.80
8008;DHT22;4049;49.468;11.200;2022-08-30T14:21:34;30.10;41.10
8008;DHT22;4049;49.468;11.200;2022-08-30T14:24:03;30.20;41.70
8008;DHT22;4049;49.468;11.200;2022-08-30T14:26:34;30.30;39.70
8008;DHT22;4049;49.468;11.200;2022-08-30T14:29:02;30.60;40.20
8008;DHT22;4049;49.468;11.200;2022-08-30T14:31:29;30.50;37.30
8008;DHT22;4049;49.468;11.200;2022-08-30T14:33:56;30.50;38.60
8008;DHT22;4049;49.468;11.200;2022-08-30T14:36:23;30.50;38.70
8008;DHT22;4049;49.468;11.200;2022-08-30T14:38:50;30.40;39.80
8008;DHT22;4049;49.468;11.200;2022-08-30T14:41:21;29.80;40.60
8008;DHT22;4049;49.468;11.200;2022-08-30T14:43:50;29.70;40.10
8008;DHT22;4049;49.468;11.200;2022-08-30T14:46:17;29.40;41.20
8008;DHT22;4049;49.468;11.200;2022-08-30T14:48:44;29.30;39.50
8008;DHT22;4049;49.468;11.200;2022-08-30T14:51:12;29.20;41.90
8008;DHT22;4049;49.468;11.200;2022-08-30T14:53:40;29.10;40.80
8008;DHT22;4049;49.468;11.200;2022-08-30T14:56:08;28.90;41.80
8008;DHT22;4049;49.468;11.200;2022-08-30T14:58:36;28.90;42.00
8008;DHT22;4049;49.468;11.200;2022-08-30T15:01:05;29.00;44.10
8008;DHT22;4049;49.468;11.200;2022-08-30T15:03:34;29.10;42.30
8008;DHT22;4049;49.468;11.200;2022-08-30T15:06:01;29.10;43.60
8008;DHT22;4049;49.468;11.200;2022-08-30T15:08:28;28.80;44.30
8008;DHT22;4049;49.468;11.200;2022-08-30T15:10:55;28.40;45.80
8008;DHT22;4049;49.468;11.200;2022-08-30T15:13:23;28.20;44.80
8008;DHT22;4049;49.468;11.200;2022-08-30T15:15:52;28.00;44.30
8008;DHT22;4049;49.468;11.200;2022-08-30T15:18:19;27.90;43.90
8008;DHT22;4049;49.468;11.200;2022-08-30T15:20:48;27.70;44.30
8008;DHT22;4049;49.468;11.200;2022-08-30T15:23:16;27.50;45.50
8008;DHT22;4049;49.468;11.200;2022-08-30T15:25:43;27.30;44.70
8008;DHT22;4049;49.468;11.200;2022-08-30T15:28:10;27.10;45.60
8008;DHT22;4049;49.468;11.200;2022-08-30T15:30:37;27.10;47.00
8008;DHT22;4049;49.468;11.200;2022-08-30T15:33:05;27.00;46.90
8008;DHT22;4049;49.468;11.200;2022-08-30T15:35:34;26.80;46.30
8008;DHT22;4049;49.468;11.200;2022-08-30T15:38:01;26.80;46.00
8008;DHT22;4049;49.468;11.200;2022-08-30T15:40:28;26.80;46.00
8008;DHT22;4049;49.468;11.200;2022-08-30T15:42:54;27.00;47.40
8008;DHT22;4049;49.468;11.200;2022-08-30T15:45:21;27.10;46.30
8008;DHT22;4049;49.468;11.200;2022-08-30T15:47:52;27.10;46.80
8008;DHT22;4049;49.468;11.200;2022-08-30T15:50:20;27.20;46.10
8008;DHT22;4049;49.468;11.200;2022-08-30T15:52:47;27.30;45.40
8008;DHT22;4049;49.468;11.200;2022-08-30T15:55:14;27.30;46.90
8008;DHT22;4049;49.468;11.200;2022-08-30T15:57:41;27.40;46.90
8008;DHT22;4049;49.468;11.200;2022-08-30T16:00:09;27.30;46.20
8008;DHT22;4049;49.468;11.200;2022-08-30T16:02:37;27.30;46.00
8008;DHT22;4049;49.468;11.200;2022-08-30T16:05:04;27.30;45.80
8008;DHT22;4049;49.468;11.200;2022-08-30T16:07:32;27.10;45.60
8008;DHT22;4049;49.468;11.200;2022-08-30T16:09:59;27.00;45.80